Time;durP1;ratioP1;P1;durP2;ratioP2;P2;SDS_P1;SDS_P2;PMS_P1;PMS_P2;Temp;Humidity;BMP_temperature;BMP_pressure;BME280_temperature;BME280_humidity;BME280_pressure;Samples;Min_cycle;Max_cycle;Signal;HPM_P1;HPM_P2
2022/05/30 00:01:40;;;;;;;;;;;;;;;16.45;88.03;98823.56;5016609;28;815;-59
2022/05/30 00:04:07;;;;;;;;;;;;;;;16.45;88.28;98824.34;5034455;28;1886;-58
2022/05/30 00:06:33;;;;;;;;;;;;;;;16.44;88.41;98828.34;5034147;28;835;-58
2022/05/30 00:09:00;;;;;;;;;;;;;;;16.39;88.64;98823.41;5033737;28;902;-58
2022/05/30 00:11:27;;;;;;;;;;;;;;;16.37;89.06;98825.91;5033739;28;893;-58
2022/05/30 00:13:54;;;;;;;;;;;;;;;16.42;89.08;98828.06;5033634;28;897;-58
2022/05/30 00:16:25;;;;;;;;;;;;;;;16.47;88.86;98821.88;5033577;28;869;-58
2022/05/30 00:18:52;;;;;;;;;;;;;;;16.51;88.86;98828.06;5033685;28;903;-58
2022/05/30 00:21:22;;;;;;;;;;;;;;;16.52;88.80;98832.38;5033606;28;882;-58
2022/05/30 00:23:53;;;;;;;;;;;;;;;16.48;88.92;98834.56;5032258;28;1882;-58
2022/05/30 00:26:20;;;;;;;;;;;;;;;16.43;88.89;98837.97;5033339;28;887;-58
2022/05/30 00:28:47;;;;;;;;;;;;;;;16.46;89.23;98839.81;5033411;28;1270;-58
2022/05/30 00:31:16;;;;;;;;;;;;;;;16.50;89.14;98845.25;5033372;28;846;-58
2022/05/30 00:33:43;;;;;;;;;;;;;;;16.50;89.12;98843.22;5033321;28;902;-58
2022/05/30 00:36:10;;;;;;;;;;;;;;;16.54;89.09;98835.47;5033228;28;861;-58
2022/05/30 00:38:37;;;;;;;;;;;;;;;16.54;89.33;98837.50;5033278;28;810;-58
2022/05/30 00:41:04;;;;;;;;;;;;;;;16.53;89.12;98845.06;5033515;28;839;-58
2022/05/30 00:43:32;;;;;;;;;;;;;;;16.54;89.37;98843.84;5032992;28;811;-58
2022/05/30 00:46:00;;;;;;;;;;;;;;;16.50;89.24;98845.25;5032928;28;2033;-58
2022/05/30 00:48:31;;;;;;;;;;;;;;;16.41;89.82;98848.81;5033035;28;831;-58
2022/05/30 00:51:01;;;;;;;;;;;;;;;16.40;89.98;98850.06;5032993;28;866;-58
2022/05/30 00:53:29;;;;;;;;;;;;;;;16.48;89.96;98847.72;5032964;28;843;-58
2022/05/30 00:55:57;;;;;;;;;;;;;;;16.46;90.04;98844.63;5033545;28;816;-58
2022/05/30 00:58:27;;;;;;;;;;;;;;;16.48;90.38;98848.50;5032977;28;799;-58
2022/05/30 01:00:54;;;;;;;;;;;;;;;16.50;90.39;98848.81;5032694;28;867;-58
2022/05/30 01:08:53;;;;;;;;;;;;;;;16.44;90.07;98861.06;5032691;28;681;-58
2022/05/30 01:11:19;;;;;;;;;;;;;;;16.34;90.39;98871.44;5015324;28;774;-58
2022/05/30 01:13:46;;;;;;;;;;;;;;;16.23;90.64;98865.53;5033254;28;814;-58
2022/05/30 01:16:13;;;;;;;;;;;;;;;16.14;91.22;98877.47;5032837;28;799;-58
2022/05/30 01:18:46;;;;;;;;;;;;;;;16.01;91.52;98885.19;5033442;28;751;-58
2022/05/30 01:21:31;;;;;;;;;;;;;;;15.91;92.03;98876.81;5032422;28;854;-58
2022/05/30 01:24:20;;;;;;;;;;;;;;;15.85;92.34;98881.47;5032368;28;1901;-58
2022/05/30 01:27:04;;;;;;;;;;;;;;;15.81;92.93;98875.25;5032370;28;892;-58
2022/05/30 01:29:35;;;;;;;;;;;;;;;15.82;93.13;98890.72;5032259;28;1263;-58
2022/05/30 01:32:02;;;;;;;;;;;;;;;15.79;93.86;98885.28;5032241;28;838;-58
2022/05/30 01:34:29;;;;;;;;;;;;;;;15.78;93.88;98884.50;5031866;28;818;-58
2022/05/30 01:36:55;;;;;;;;;;;;;;;15.75;93.95;98891.03;5032179;28;818;-58
2022/05/30 01:39:22;;;;;;;;;;;;;;;15.74;94.25;98891.47;5032088;28;850;-58
2022/05/30 01:41:48;;;;;;;;;;;;;;;15.69;94.23;98901.19;5032024;28;926;-58
2022/05/30 01:44:15;;;;;;;;;;;;;;;15.70;94.71;98889.59;5032122;28;1910;-58
2022/05/30 01:46:42;;;;;;;;;;;;;;;15.69;94.43;98899.16;5032169;28;897;-58
2022/05/30 01:49:09;;;;;;;;;;;;;;;15.54;94.36;98887.06;5032300;28;866;-58
2022/05/30 01:51:36;;;;;;;;;;;;;;;15.37;94.72;98882.97;5014412;28;875;-58
2022/05/30 01:54:03;;;;;;;;;;;;;;;15.25;94.97;98881.81;5032392;28;843;-58
2022/05/30 01:56:29;;;;;;;;;;;;;;;15.16;95.27;98885.34;5032072;28;862;-58
2022/05/30 01:58:56;;;;;;;;;;;;;;;15.11;95.70;98897.84;5032167;28;834;-58
2022/05/30 02:01:24;;;;;;;;;;;;;;;15.05;95.57;98887.75;5031903;28;810;-58
2022/05/30 02:03:54;;;;;;;;;;;;;;;14.94;95.95;98901.31;5031694;28;1886;-58
2022/05/30 02:06:23;;;;;;;;;;;;;;;14.89;96.41;98897.88;5031902;28;849;-58
2022/05/30 02:08:50;;;;;;;;;;;;;;;14.96;97.12;98904.41;5031605;28;942;-59
2022/05/30 02:11:18;;;;;;;;;;;;;;;15.04;97.57;98900.09;5031588;28;806;-58
2022/05/30 02:13:44;;;;;;;;;;;;;;;15.08;97.36;98897.97;5031650;28;865;-58
2022/05/30 02:18:57;;;;;;;;;;;;;;;15.07;97.39;98904.78;5031876;28;621;-58
2022/05/30 02:21:24;;;;;;;;;;;;;;;15.04;97.42;98902.88;5031535;28;823;-58
2022/05/30 02:23:50;;;;;;;;;;;;;;;15.03;97.52;98887.44;5031746;28;1946;-58
2022/05/30 02:26:17;;;;;;;;;;;;;;;15.02;97.84;98875.53;5031519;28;843;-58
2022/05/30 02:28:44;;;;;;;;;;;;;;;15.02;97.74;98891.44;5031313;28;1413;-58
2022/05/30 02:31:11;;;;;;;;;;;;;;;14.99;97.66;98909.03;5013788;28;775;-58
2022/05/30 02:36:39;;;;;;;;;;;;;;;14.85;97.73;98922.25;5031678;28;625;-58
2022/05/30 02:39:15;;;;;;;;;;;;;;;14.79;97.89;98909.38;5031361;28;902;-58
2022/05/30 02:41:42;;;;;;;;;;;;;;;14.81;98.07;98899.34;5013577;28;925;-58
2022/05/30 02:44:09;;;;;;;;;;;;;;;14.90;98.02;98895.84;5031362;28;1973;-58
2022/05/30 02:46:35;;;;;;;;;;;;;;;14.97;98.07;98890.00;5032852;28;1651;-58
2022/05/30 02:49:02;;;;;;;;;;;;;;;15.03;97.81;98876.31;5035175;28;906;-58
2022/05/30 02:51:29;;;;;;;;;;;;;;;15.11;97.83;98883.16;5035290;28;811;-58
2022/05/30 02:53:56;;;;;;;;;;;;;;;15.15;97.75;98883.78;5035231;28;862;-58
2022/05/30 02:56:24;;;;;;;;;;;;;;;15.21;97.32;98873.63;5035126;28;843;-58
2022/05/30 02:58:50;;;;;;;;;;;;;;;15.26;97.58;98853.53;5035205;28;843;-58
2022/05/30 03:01:17;;;;;;;;;;;;;;;15.37;97.40;98846.78;5017229;28;1206;-58
2022/05/30 03:03:44;;;;;;;;;;;;;;;15.54;97.28;98828.56;5034945;28;1949;-59
2022/05/30 03:06:12;;;;;;;;;;;;;;;15.81;97.20;98827.09;5034957;28;918;-58
2022/05/30 03:08:38;;;;;;;;;;;;;;;16.23;96.44;98823.72;5034837;28;949;-58
2022/05/30 03:11:05;;;;;;;;;;;;;;;16.80;95.23;98809.25;5034798;28;819;-58
2022/05/30 03:13:32;;;;;;;;;;;;;;;17.27;93.60;98808.63;5034947;28;819;-58
2022/05/30 03:15:59;;;;;;;;;;;;;;;17.61;92.40;98801.00;5034835;28;889;-58
2022/05/30 03:18:26;;;;;;;;;;;;;;;17.84;91.29;98809.91;5034724;28;894;-58
2022/05/30 03:20:52;;;;;;;;;;;;;;;17.99;90.79;98810.72;5034699;28;877;-58
2022/05/30 03:23:20;;;;;;;;;;;;;;;18.13;89.35;98806.41;5034651;28;890;-59
2022/05/30 03:25:46;;;;;;;;;;;;;;;18.41;86.44;98792.94;5016805;28;1953;-59
2022/05/30 03:28:14;;;;;;;;;;;;;;;18.71;82.94;98809.75;5034506;28;1214;-58
2022/05/30 03:30:40;;;;;;;;;;;;;;;18.95;81.45;98820.91;5034587;28;806;-58
2022/05/30 03:33:10;;;;;;;;;;;;;;;18.92;80.45;98833.03;5034435;28;960;-59
2022/05/30 03:35:37;;;;;;;;;;;;;;;18.48;81.29;98831.75;5016713;28;783;-58
2022/05/30 03:38:04;;;;;;;;;;;;;;;18.04;82.49;98832.41;5034284;28;867;-59
2022/05/30 03:40:30;;;;;;;;;;;;;;;17.70;84.03;98833.69;5034304;28;870;-58
2022/05/30 03:42:58;;;;;;;;;;;;;;;17.53;85.07;98841.72;5034309;28;924;-58
2022/05/30 03:45:25;;;;;;;;;;;;;;;17.44;85.58;98853.69;5034075;28;1973;-58
2022/05/30 03:47:51;;;;;;;;;;;;;;;17.35;86.11;98837.00;5034281;28;831;-58
2022/05/30 03:50:21;;;;;;;;;;;;;;;17.23;86.63;98833.16;5034287;28;842;-58
2022/05/30 03:52:48;;;;;;;;;;;;;;;17.17;86.72;98829.44;5033972;28;927;-58
2022/05/30 03:55:16;;;;;;;;;;;;;;;17.13;86.96;98840.81;5034112;28;834;-58
2022/05/30 03:57:43;;;;;;;;;;;;;;;17.11;87.56;98843.28;5033707;28;888;-58
2022/05/30 04:00:11;;;;;;;;;;;;;;;17.11;87.40;98840.50;5033925;28;926;-58
2022/05/30 04:02:38;;;;;;;;;;;;;;;17.19;87.60;98848.53;5033859;28;840;-58
2022/05/30 04:05:05;;;;;;;;;;;;;;;17.27;87.45;98849.75;5033776;28;1943;-58
2022/05/30 04:07:32;;;;;;;;;;;;;;;17.27;87.72;98850.50;5033867;28;866;-58
2022/05/30 04:09:58;;;;;;;;;;;;;;;17.29;87.59;98856.41;5033748;28;791;-58
2022/05/30 04:12:25;;;;;;;;;;;;;;;17.37;87.62;98856.84;5033635;28;1004;-58
2022/05/30 04:14:55;;;;;;;;;;;;;;;17.42;87.41;98859.00;5033811;28;827;-58
2022/05/30 04:17:22;;;;;;;;;;;;;;;17.45;87.56;98879.59;5015822;28;1332;-58
2022/05/30 04:19:49;;;;;;;;;;;;;;;17.52;87.24;98887.66;5033676;28;893;-58
2022/05/30 04:22:16;;;;;;;;;;;;;;;17.58;87.11;98893.38;5033538;28;845;-58
2022/05/30 04:24:43;;;;;;;;;;;;;;;17.64;86.94;98906.22;5033470;28;1941;-58
2022/05/30 04:27:10;;;;;;;;;;;;;;;17.75;86.90;98900.91;5033752;28;894;-59
2022/05/30 04:29:37;;;;;;;;;;;;;;;18.03;86.36;98909.16;5033294;28;1359;-58
2022/05/30 04:32:05;;;;;;;;;;;;;;;18.46;85.03;98917.41;5033403;28;917;-58
2022/05/30 04:34:31;;;;;;;;;;;;;;;18.89;83.57;98934.81;5033473;28;827;-58
2022/05/30 04:36:57;;;;;;;;;;;;;;;19.17;82.00;98932.50;5033162;28;910;-59
2022/05/30 04:39:24;;;;;;;;;;;;;;;19.31;81.16;98942.94;5033154;28;787;-58
2022/05/30 04:41:51;;;;;;;;;;;;;;;19.31;80.87;98942.16;5033103;28;929;-58
2022/05/30 04:44:18;;;;;;;;;;;;;;;19.40;80.52;98935.69;5033077;28;1906;-59
2022/05/30 04:46:50;;;;;;;;;;;;;;;19.52;79.76;98937.41;5033089;28;874;-59
2022/05/30 04:49:16;;;;;;;;;;;;;;;19.78;79.47;98951.63;5033097;28;922;-59
2022/05/30 04:51:44;;;;;;;;;;;;;;;20.19;77.73;98951.69;5033028;28;826;-59
2022/05/30 04:54:10;;;;;;;;;;;;;;;20.71;75.86;98951.84;5032923;28;843;-58
2022/05/30 04:56:37;;;;;;;;;;;;;;;21.44;73.19;98963.06;5032900;28;865;-58
2022/05/30 04:59:04;;;;;;;;;;;;;;;22.11;70.04;98948.75;5032808;28;937;-58
2022/05/30 05:01:31;;;;;;;;;;;;;;;22.60;66.98;98957.97;5032877;28;819;-58
2022/05/30 05:03:58;;;;;;;;;;;;;;;22.84;64.04;98960.34;5032537;28;1894;-58
2022/05/30 05:06:25;;;;;;;;;;;;;;;22.56;63.34;98970.75;5032722;28;867;-58
2022/05/30 05:08:53;;;;;;;;;;;;;;;22.19;64.82;98971.53;5031957;28;779;-58
2022/05/30 05:11:31;;;;;;;;;;;;;;;21.90;65.74;98973.41;5032832;28;965;-58
2022/05/30 05:13:57;;;;;;;;;;;;;;;21.88;66.37;98978.78;5032633;28;870;-58
2022/05/30 05:16:27;;;;;;;;;;;;;;;22.10;66.47;98983.75;5032573;28;873;-58
2022/05/30 05:18:54;;;;;;;;;;;;;;;22.71;64.78;98982.59;5032483;28;811;-58
2022/05/30 05:21:23;;;;;;;;;;;;;;;22.80;64.22;98979.53;5032723;28;806;-59
2022/05/30 05:23:49;;;;;;;;;;;;;;;22.57;63.91;98989.16;5032383;28;1953;-59
2022/05/30 05:26:17;;;;;;;;;;;;;;;22.39;63.93;98982.69;5032360;28;905;-59
2022/05/30 05:28:44;;;;;;;;;;;;;;;22.51;64.52;98994.78;5011272;28;1262;-59
2022/05/30 05:31:14;;;;;;;;;;;;;;;22.93;63.09;98993.16;5012791;28;799;-59
2022/05/30 05:33:41;;;;;;;;;;;;;;;23.40;61.42;98995.59;5012575;28;818;-59
2022/05/30 05:36:06;;;;;;;;;;;;;;;23.77;60.53;98998.22;5012507;28;877;-58
2022/05/30 05:38:33;;;;;;;;;;;;;;;24.16;59.08;99003.03;5012376;28;807;-59
2022/05/30 05:41:00;;;;;;;;;;;;;;;24.14;59.10;99004.84;5012402;28;901;-58
2022/05/30 05:43:27;;;;;;;;;;;;;;;23.97;59.81;99018.97;5012334;28;870;-59
2022/05/30 05:45:54;;;;;;;;;;;;;;;23.52;60.60;99022.53;5012259;28;1906;-58
2022/05/30 05:48:20;;;;;;;;;;;;;;;24.21;59.63;99033.28;5012336;28;838;-59
2022/05/30 05:50:47;;;;;;;;;;;;;;;24.86;57.17;99032.13;5012290;28;827;-58
2022/05/30 05:53:14;;;;;;;;;;;;;;;25.37;56.26;99031.91;5012103;28;981;-58
2022/05/30 05:55:41;;;;;;;;;;;;;;;25.88;53.50;99037.16;5012125;28;946;-58
2022/05/30 05:58:08;;;;;;;;;;;;;;;25.88;52.47;99034.31;5012127;28;859;-59
2022/05/30 06:00:34;;;;;;;;;;;;;;;25.87;52.34;99033.56;5012117;28;917;-58
2022/05/30 06:03:01;;;;;;;;;;;;;;;24.91;54.15;99047.50;5012064;28;897;-58
2022/05/30 06:05:30;;;;;;;;;;;;;;;23.77;56.89;99037.69;5012006;28;1961;-58
2022/05/30 06:08:00;;;;;;;;;;;;;;;23.48;58.69;99029.69;5012125;28;926;-58
2022/05/30 06:10:27;;;;;;;;;;;;;;;25.39;54.86;99046.28;5011876;28;912;-58
2022/05/30 06:12:53;;;;;;;;;;;;;;;27.27;50.52;99038.31;5011953;28;846;-58
2022/05/30 06:15:20;;;;;;;;;;;;;;;28.22;47.90;99046.63;5011862;28;918;-59
2022/05/30 06:17:47;;;;;;;;;;;;;;;28.59;47.15;99048.56;5011847;28;877;-58
2022/05/30 06:20:14;;;;;;;;;;;;;;;29.42;45.91;99055.88;5011888;28;787;-60
2022/05/30 06:22:41;;;;;;;;;;;;;;;29.63;44.69;99058.75;5011817;28;792;-59
2022/05/30 06:25:08;;;;;;;;;;;;;;;29.83;43.43;99054.44;5011661;28;1949;-59
2022/05/30 06:27:35;;;;;;;;;;;;;;;29.98;43.31;99056.66;5011976;28;961;-59
2022/05/30 06:30:03;;;;;;;;;;;;;;;30.32;42.45;99061.50;5028704;28;1237;-58
2022/05/30 06:32:29;;;;;;;;;;;;;;;30.65;41.48;99054.13;5031395;28;862;-58
2022/05/30 06:34:56;;;;;;;;;;;;;;;31.03;41.03;99053.59;5031398;28;853;-58
2022/05/30 06:37:21;;;;;;;;;;;;;;;31.44;40.15;99057.56;5031309;28;870;-59
2022/05/30 06:39:50;;;;;;;;;;;;;;;31.95;39.26;99062.44;5031359;28;803;-59
2022/05/30 06:42:17;;;;;;;;;;;;;;;31.73;40.28;99066.03;5031328;28;846;-58
2022/05/30 06:44:44;;;;;;;;;;;;;;;31.92;39.31;99065.66;5031335;28;1906;-59
2022/05/30 06:47:11;;;;;;;;;;;;;;;31.85;38.58;99069.28;5031292;28;811;-58
2022/05/30 06:49:38;;;;;;;;;;;;;;;32.09;38.77;99065.91;5031164;28;977;-59
2022/05/30 06:52:05;;;;;;;;;;;;;;;32.71;38.37;99071.56;5031503;28;839;-59
2022/05/30 06:54:32;;;;;;;;;;;;;;;33.14;37.27;99070.53;5031268;28;803;-58
2022/05/30 06:59:44;;;;;;;;;;;;;;;32.67;37.55;99074.09;5031249;28;608;-58
2022/05/30 07:02:11;;;;;;;;;;;;;;;32.89;36.94;99067.53;5031182;28;885;-60
2022/05/30 07:04:37;;;;;;;;;;;;;;;33.12;36.76;99070.34;5031067;28;1889;-58
2022/05/30 07:07:05;;;;;;;;;;;;;;;33.65;36.28;99071.44;5031061;28;799;-58
2022/05/30 07:09:32;;;;;;;;;;;;;;;33.75;35.56;99066.56;5031138;28;932;-58
2022/05/30 07:11:59;;;;;;;;;;;;;;;33.80;35.42;99072.66;4997114;28;1345;-58
2022/05/30 07:14:26;;;;;;;;;;;;;;;34.11;34.26;99076.06;5031096;28;798;-58
2022/05/30 07:16:53;;;;;;;;;;;;;;;34.51;33.93;99069.44;5013250;28;1474;-58
2022/05/30 07:19:20;;;;;;;;;;;;;;;34.45;34.89;99071.81;5031203;28;799;-58
2022/05/30 07:21:46;;;;;;;;;;;;;;;34.31;34.69;99077.84;5031057;28;823;-59
2022/05/30 07:24:13;;;;;;;;;;;;;;;33.59;34.71;99084.44;5030916;28;1886;-58
2022/05/30 07:26:40;;;;;;;;;;;;;;;32.44;35.81;99076.94;5030891;28;851;-58
2022/05/30 07:29:08;;;;;;;;;;;;;;;32.07;36.53;99076.34;5030620;28;1203;-59
2022/05/30 07:31:35;;;;;;;;;;;;;;;31.65;36.64;99071.72;5030851;28;946;-58
2022/05/30 07:34:01;;;;;;;;;;;;;;;31.28;37.15;99084.50;5034377;28;878;-58
2022/05/30 07:36:29;;;;;;;;;;;;;;;31.08;38.91;99081.19;5034423;28;886;-58
2022/05/30 07:38:56;;;;;;;;;;;;;;;31.24;39.53;99075.53;5034383;28;843;-58
2022/05/30 07:41:24;;;;;;;;;;;;;;;31.43;37.55;99084.63;5016574;28;1384;-59
2022/05/30 07:43:51;;;;;;;;;;;;;;;30.89;38.67;99094.97;5034375;28;1906;-58
2022/05/30 07:46:19;;;;;;;;;;;;;;;30.45;40.24;99100.53;5034201;28;823;-58
2022/05/30 07:48:46;;;;;;;;;;;;;;;30.59;40.03;99102.00;5034247;28;803;-58
2022/05/30 07:51:14;;;;;;;;;;;;;;;30.50;40.39;99108.22;5034186;28;867;-58
2022/05/30 07:53:41;;;;;;;;;;;;;;;30.29;40.78;99106.13;5034201;28;823;-58
2022/05/30 07:56:10;;;;;;;;;;;;;;;30.67;40.52;99102.06;5034072;28;826;-58
2022/05/30 07:58:37;;;;;;;;;;;;;;;30.97;41.06;99110.06;5034059;28;885;-57
2022/05/30 08:01:04;;;;;;;;;;;;;;;30.93;40.05;99107.56;5034157;28;866;-58
2022/05/30 08:03:31;;;;;;;;;;;;;;;29.85;42.43;99117.31;5033988;28;854;-58
2022/05/30 08:06:12;;;;;;;;;;;;;;;29.57;42.91;99128.53;5033798;28;1890;-59
2022/05/30 08:08:39;;;;;;;;;;;;;;;28.61;43.59;99122.66;5033778;28;964;-58
2022/05/30 08:11:06;;;;;;;;;;;;;;;28.77;45.31;99120.06;5033903;28;909;-58
2022/05/30 08:13:33;;;;;;;;;;;;;;;29.06;43.94;99124.66;5033615;28;950;-58
2022/05/30 08:16:00;;;;;;;;;;;;;;;29.23;43.13;99129.25;5033729;28;804;-59
2022/05/30 08:18:28;;;;;;;;;;;;;;;28.91;42.56;99132.94;5033676;28;819;-59
2022/05/30 08:20:54;;;;;;;;;;;;;;;29.06;44.30;99127.50;5033714;28;861;-57
2022/05/30 08:23:23;;;;;;;;;;;;;;;29.44;43.04;99126.47;5033489;28;863;-61
2022/05/30 08:25:51;;;;;;;;;;;;;;;28.67;43.79;99136.78;5033427;28;1898;-58
2022/05/30 08:28:18;;;;;;;;;;;;;;;28.09;45.94;99135.41;5033288;28;1352;-58
2022/05/30 08:30:44;;;;;;;;;;;;;;;28.07;44.98;99143.69;5033504;28;842;-57
2022/05/30 08:33:12;;;;;;;;;;;;;;;28.25;44.81;99142.13;5033384;28;811;-59
2022/05/30 08:35:39;;;;;;;;;;;;;;;28.35;44.65;99137.56;5033279;28;850;-58
2022/05/30 08:38:06;;;;;;;;;;;;;;;28.30;44.20;99142.03;5033256;28;795;-58
2022/05/30 08:43:37;;;;;;;;;;;;;;;28.36;43.50;99149.69;5032909;28;617;-58
2022/05/30 08:46:12;;;;;;;;;;;;;;;28.28;45.25;99150.31;5033057;28;1914;-58
2022/05/30 08:48:51;;;;;;;;;;;;;;;28.53;45.04;99155.91;5032991;28;859;-57
2022/05/30 08:51:27;;;;;;;;;;;;;;;28.87;43.76;99150.34;5033073;28;886;-57
2022/05/30 08:54:14;;;;;;;;;;;;;;;29.13;43.89;99159.47;5033117;28;826;-58
2022/05/30 08:56:42;;;;;;;;;;;;;;;28.81;42.88;99157.47;5032879;28;847;-58
2022/05/30 08:59:08;;;;;;;;;;;;;;;28.56;44.07;99162.56;5033112;28;802;-58
2022/05/30 09:01:39;;;;;;;;;;;;;;;28.42;43.92;99159.66;5033101;28;831;-57
2022/05/30 09:04:16;;;;;;;;;;;;;;;28.34;44.45;99161.59;5032764;28;1885;-58
2022/05/30 09:06:50;;;;;;;;;;;;;;;28.42;44.78;99156.03;5032689;28;933;-60
2022/05/30 09:09:27;;;;;;;;;;;;;;;28.80;45.00;99158.75;5032669;28;814;-58
2022/05/30 09:12:19;;;;;;;;;;;;;;;28.93;43.37;99167.31;5015374;28;827;-57
2022/05/30 09:15:16;;;;;;;;;;;;;;;28.34;44.12;99161.59;5032502;28;1290;-57
2022/05/30 09:29:57;;;;;;;;;;;;;;;28.60;44.66;99185.75;5032260;28;1338;-57
2022/05/30 09:32:43;;;;;;;;;;;;;;;28.37;42.78;99185.31;5032216;28;974;-58
2022/05/30 09:35:29;;;;;;;;;;;;;;;27.90;45.18;99195.84;5032044;28;915;-57
2022/05/30 09:38:17;;;;;;;;;;;;;;;27.77;44.81;99192.13;5032139;28;899;-57
2022/05/30 09:40:53;;;;;;;;;;;;;;;27.58;46.09;99189.28;5032354;28;795;-56
2022/05/30 09:43:39;;;;;;;;;;;;;;;27.45;46.09;99202.06;5032037;28;827;-58
2022/05/30 09:46:16;;;;;;;;;;;;;;;27.36;47.13;99205.28;5032248;28;1906;-58
2022/05/30 09:49:02;;;;;;;;;;;;;;;27.21;47.44;99199.25;5031935;28;930;-57
2022/05/30 10:29:06;;;;;;;;;;;;;;;27.29;45.69;99217.25;5050319;22;1870;-57
2022/05/30 10:31:39;;;;;;;;;;;;;;;27.39;47.21;99220.47;5032312;28;841;-57
2022/05/30 10:34:12;;;;;;;;;;;;;;;27.47;46.92;99222.19;5031527;28;794;-58
2022/05/30 10:36:59;;;;;;;;;;;;;;;27.40;45.89;99231.31;5031418;28;874;-60
2022/05/30 10:39:26;;;;;;;;;;;;;;;27.41;46.29;99232.06;5031431;28;877;-57
2022/05/30 10:42:02;;;;;;;;;;;;;;;27.32;45.40;99232.44;5031340;28;869;-57
2022/05/30 10:44:54;;;;;;;;;;;;;;;27.45;46.58;99226.84;5031324;28;1989;-57
2022/05/30 10:47:36;;;;;;;;;;;;;;;27.81;46.29;99238.78;5019724;28;1770;-57
2022/05/30 10:50:06;;;;;;;;;;;;;;;27.04;46.85;99239.91;5031566;28;858;-58
2022/05/30 10:52:47;;;;;;;;;;;;;;;27.09;48.22;99241.91;5031549;28;771;-57
2022/05/30 10:55:24;;;;;;;;;;;;;;;27.61;46.39;99236.44;5031133;28;919;-57
2022/05/30 10:57:51;;;;;;;;;;;;;;;28.09;45.49;99229.91;5031185;28;931;-57
2022/05/30 11:00:20;;;;;;;;;;;;;;;28.34;44.45;99237.56;5031146;28;799;-57
2022/05/30 11:02:49;;;;;;;;;;;;;;;28.06;43.22;99233.06;5031484;28;882;-56
2022/05/30 11:05:24;;;;;;;;;;;;;;;28.13;44.14;99231.69;5030899;28;1889;-57
2022/05/30 11:08:02;;;;;;;;;;;;;;;28.11;43.69;99240.72;5033000;28;854;-57
2022/05/30 11:10:34;;;;;;;;;;;;;;;28.05;43.83;99248.56;5034946;28;913;-59
2022/05/30 11:13:13;;;;;;;;;;;;;;;28.09;43.30;99237.66;5034915;28;835;-60
2022/05/30 11:15:45;;;;;;;;;;;;;;;28.24;43.22;99237.94;5035328;28;847;-58
2022/05/30 11:18:15;;;;;;;;;;;;;;;28.56;43.05;99245.00;5034785;28;854;-58
2022/05/30 11:20:48;;;;;;;;;;;;;;;28.60;42.05;99237.69;5034800;28;886;-60
2022/05/30 11:23:15;;;;;;;;;;;;;;;28.62;42.68;99243.59;5034734;28;862;-58
2022/05/30 11:25:41;;;;;;;;;;;;;;;28.73;43.59;99239.03;5034677;28;1894;-58
2022/05/30 11:28:22;;;;;;;;;;;;;;;28.80;43.03;99244.06;5017049;28;1748;-58
2022/05/30 11:30:50;;;;;;;;;;;;;;;28.68;42.39;99249.19;5034440;28;1438;-59
2022/05/30 11:33:31;;;;;;;;;;;;;;;28.66;42.64;99241.19;5016871;28;1288;-58
2022/05/30 11:36:08;;;;;;;;;;;;;;;28.94;42.19;99242.03;5034661;28;810;-58
2022/05/30 11:38:59;;;;;;;;;;;;;;;29.16;41.79;99247.31;5034668;28;845;-58
2022/05/30 11:41:35;;;;;;;;;;;;;;;29.30;41.39;99248.88;4997658;28;1407;-58
2022/05/30 11:44:20;;;;;;;;;;;;;;;29.31;41.21;99253.25;5034513;28;1902;-59
2022/05/30 11:46:54;;;;;;;;;;;;;;;29.41;40.75;99253.59;5034232;28;881;-58
2022/05/30 11:49:36;;;;;;;;;;;;;;;29.64;40.88;99247.44;5034303;28;830;-59
2022/05/30 11:52:02;;;;;;;;;;;;;;;29.79;40.50;99250.53;5034159;28;811;-58
2022/05/30 11:54:38;;;;;;;;;;;;;;;30.14;40.23;99257.00;5034238;28;823;-58
2022/05/30 11:57:25;;;;;;;;;;;;;;;29.98;40.25;99249.59;5034152;28;787;-58
2022/05/30 12:12:18;;;;;;;;;;;;;;;30.63;37.53;99249.94;5034181;28;621;-58
2022/05/30 12:15:04;;;;;;;;;;;;;;;30.86;37.29;99253.78;5033727;28;834;-58
2022/05/30 12:23:49;;;;;;;;;;;;;;;32.18;35.91;99258.16;5019012;28;1351;-59
2022/05/30 12:26:37;;;;;;;;;;;;;;;32.59;35.84;99256.38;5033530;28;1902;-57
2022/05/30 12:29:04;;;;;;;;;;;;;;;32.62;35.08;99255.22;5032972;28;1747;-58
2022/05/30 12:31:35;;;;;;;;;;;;;;;32.50;35.33;99249.84;5033537;28;845;-57
2022/05/30 12:34:02;;;;;;;;;;;;;;;32.93;33.88;99256.00;5033263;28;861;-58
2022/05/30 12:36:36;;;;;;;;;;;;;;;32.45;34.21;99258.59;5033396;28;826;-58
2022/05/30 12:39:23;;;;;;;;;;;;;;;32.28;34.80;99259.16;5033336;28;850;-58
2022/05/30 12:42:02;;;;;;;;;;;;;;;32.07;34.79;99256.41;5033449;28;1348;-58
2022/05/30 12:44:48;;;;;;;;;;;;;;;32.03;35.12;99259.66;5033023;28;1972;-57
2022/05/30 12:47:22;;;;;;;;;;;;;;;32.20;35.46;99255.50;5033146;28;861;-58
2022/05/30 12:49:49;;;;;;;;;;;;;;;32.44;35.35;99255.00;5033476;28;854;-58
2022/05/30 12:52:17;;;;;;;;;;;;;;;32.13;35.18;99257.78;5033475;28;871;-57
2022/05/30 12:54:59;;;;;;;;;;;;;;;31.98;35.40;99265.50;5033100;28;925;-58
2022/05/30 12:57:39;;;;;;;;;;;;;;;32.31;35.21;99258.78;5032925;28;882;-58
2022/05/30 13:00:16;;;;;;;;;;;;;;;32.43;35.68;99255.56;5032859;28;848;-58
2022/05/30 13:02:46;;;;;;;;;;;;;;;32.09;35.69;99254.53;5032786;28;893;-58
2022/05/30 13:05:39;;;;;;;;;;;;;;;32.11;35.29;99248.22;5033253;28;1877;-58
2022/05/30 13:08:24;;;;;;;;;;;;;;;31.82;35.13;99256.88;5029627;28;1168;-57
2022/05/30 13:10:55;;;;;;;;;;;;;;;31.89;35.26;99250.41;5032715;28;870;-57
2022/05/30 13:13:29;;;;;;;;;;;;;;;32.25;35.12;99252.47;5032703;28;811;-58
2022/05/30 13:15:59;;;;;;;;;;;;;;;32.28;34.87;99247.72;5032708;28;846;-58
2022/05/30 13:18:27;;;;;;;;;;;;;;;31.85;34.70;99241.44;5032550;28;798;-58
2022/05/30 13:21:01;;;;;;;;;;;;;;;31.56;35.32;99254.25;5032446;28;929;-57
2022/05/30 13:23:34;;;;;;;;;;;;;;;31.59;35.60;99253.91;5032480;28;878;-57
2022/05/30 13:26:02;;;;;;;;;;;;;;;31.40;35.76;99242.72;5032394;28;1878;-57
2022/05/30 13:28:39;;;;;;;;;;;;;;;31.58;36.19;99258.09;5032657;28;966;-57
2022/05/30 13:31:08;;;;;;;;;;;;;;;31.96;36.20;99254.63;5031814;28;1422;-58
2022/05/30 13:33:39;;;;;;;;;;;;;;;32.38;35.28;99239.34;5032132;28;931;-58
2022/05/30 13:36:14;;;;;;;;;;;;;;;31.96;35.13;99251.78;5032478;28;826;-58
2022/05/30 13:38:42;;;;;;;;;;;;;;;31.28;35.84;99245.16;5032144;28;818;-59
2022/05/30 13:41:10;;;;;;;;;;;;;;;30.96;35.95;99242.63;5032124;28;874;-58
2022/05/30 13:43:37;;;;;;;;;;;;;;;30.91;36.58;99252.84;5032170;28;870;-57
2022/05/30 13:46:05;;;;;;;;;;;;;;;30.76;36.54;99249.84;5031941;28;1985;-58
2022/05/30 13:48:33;;;;;;;;;;;;;;;30.54;37.44;99248.31;5032209;28;807;-58
2022/05/30 13:51:11;;;;;;;;;;;;;;;30.39;37.70;99254.66;5014238;28;929;-58
2022/05/30 13:53:42;;;;;;;;;;;;;;;30.36;37.65;99252.13;5031872;28;847;-57
2022/05/30 13:56:26;;;;;;;;;;;;;;;30.36;38.11;99250.03;5031962;28;807;-57
2022/05/30 13:58:55;;;;;;;;;;;;;;;29.64;38.35;99256.75;5032115;28;954;-57
2022/05/30 14:01:23;;;;;;;;;;;;;;;29.07;39.19;99257.03;5031797;28;799;-58
2022/05/30 14:04:03;;;;;;;;;;;;;;;28.67;39.58;99248.41;5031742;28;807;-57
2022/05/30 14:06:31;;;;;;;;;;;;;;;28.62;40.39;99260.66;5031688;28;1882;-57
2022/05/30 14:09:00;;;;;;;;;;;;;;;28.89;40.36;99257.84;5031577;28;949;-57
2022/05/30 14:11:36;;;;;;;;;;;;;;;28.76;40.61;99255.75;5031701;28;941;-57
2022/05/30 14:14:04;;;;;;;;;;;;;;;28.49;40.47;99246.41;5031696;28;806;-57
2022/05/30 14:16:54;;;;;;;;;;;;;;;27.97;41.22;99259.00;5031568;28;1010;-57
2022/05/30 14:19:29;;;;;;;;;;;;;;;27.86;42.32;99252.16;5014089;28;890;-57
2022/05/30 14:22:10;;;;;;;;;;;;;;;27.92;42.71;99268.38;5031459;28;922;-57
2022/05/30 14:24:38;;;;;;;;;;;;;;;27.89;42.96;99256.03;5031517;28;1959;-57
2022/05/30 14:27:14;;;;;;;;;;;;;;;28.05;42.90;99257.84;5031445;28;1032;-58
2022/05/30 14:29:45;;;;;;;;;;;;;;;27.93;43.17;99262.16;5031322;28;1269;-57
2022/05/30 14:32:20;;;;;;;;;;;;;;;27.74;42.64;99273.47;5031434;28;783;-58
2022/05/30 14:35:04;;;;;;;;;;;;;;;27.44;43.35;99267.88;5031435;28;830;-57
2022/05/30 14:37:34;;;;;;;;;;;;;;;27.49;43.34;99264.97;5031340;28;887;-57
2022/05/30 14:40:03;;;;;;;;;;;;;;;27.31;44.09;99264.94;5031442;28;917;-58
2022/05/30 14:42:34;;;;;;;;;;;;;;;27.18;44.45;99262.72;5033329;28;792;-57
2022/05/30 14:45:11;;;;;;;;;;;;;;;27.17;44.00;99272.53;5035353;28;1956;-58
2022/05/30 14:47:41;;;;;;;;;;;;;;;27.00;44.36;99275.53;5017660;28;830;-57